Flight Track Log - Related Links

Times and Time Zones

All times are in EDT time to prevent confusion due to time zone crossing. See the CSN6511 flight status page for this flight to view local times or setup timezone preferences in your user account.

Time Position Orientation Groundspeed Altitude Reporting Facility
EDT Latitude Longitude Course Direction KTS MPH feet Rate Location/Type
Sat 08:51:00 PM 22.7655 113.7991 354° North  Level Estimated
Sat 08:52:00 PM 22.8916 113.7858 354° North  Level Estimated
Sat 08:53:00 PM 23.0177 113.7724 354° North  Level Estimated
Sat 08:54:00 PM 23.1437 113.7590 354° North  Level Estimated
Sat 08:55:00 PM 23.2698 113.7456 354° North  Level Estimated
Sat 08:56:00 PM 23.3958 113.7322 354° North  Level Estimated
Sat 08:57:00 PM 23.5219 113.7187 354° North  Level Estimated
Sat 08:58:00 PM 23.6479 113.7052 354° North  Level Estimated
Sat 08:59:00 PM 23.7740 113.6917 354° North  Level Estimated
Sat 09:00:00 PM 23.9000 113.6782 354° North  Level Estimated
Sat 09:01:00 PM 24.0261 113.6646 354° North  Level Estimated
Sat 09:02:00 PM 24.1521 113.6510 354° North  Level Estimated
Sat 09:03:00 PM 24.2782 113.6374 354° North  Level Estimated
Sat 09:04:00 PM 24.4042 113.6237 354° North  Level Estimated
Sat 09:05:00 PM 24.5302 113.6101 354° North  Level Estimated
Sat 09:06:00 PM 24.6563 113.5964 354° North  Level Estimated
Sat 09:07:00 PM 24.7823 113.5826 354° North  Level Estimated
Sat 09:08:00 PM 24.9083 113.5689 354° North  Level Estimated
Sat 09:09:00 PM 25.0344 113.5551 354° North  Level Estimated
Sat 09:10:00 PM 25.1604 113.5413 354° North  Level Estimated
Sat 09:11:00 PM 25.2865 113.5274 354° North  Level Estimated
Sat 09:12:00 PM 25.4125 113.5136 354° North  Level Estimated
Sat 09:13:00 PM 25.5385 113.4997 354° North  Level Estimated
Sat 09:14:00 PM 25.6646 113.4857 354° North  Level Estimated
Sat 09:15:00 PM 25.7906 113.4718 354° North  Level Estimated
Sat 09:16:00 PM 25.9166 113.4578 354° North  Level Estimated
Sat 09:17:00 PM 26.0426 113.4438 354° North  Level Estimated
Sat 09:18:00 PM 26.1687 113.4297 354° North  Level Estimated
Sat 09:19:00 PM 26.2947 113.4156 354° North  Level Estimated
Sat 09:20:00 PM 26.4207 113.4015 354° North  Level Estimated
Sat 09:21:00 PM 26.5467 113.3874 354° North  Level Estimated
Sat 09:22:00 PM 26.6728 113.3732 354° North  Level Estimated
Sat 09:23:00 PM 26.7988 113.3590 354° North  Level Estimated
Sat 09:24:00 PM 26.9248 113.3448 354° North  Level Estimated
Sat 09:25:00 PM 27.0508 113.3305 354° North  Level Estimated
Sat 09:26:00 PM 27.1768 113.3162 354° North  Level Estimated
Sat 09:27:00 PM 27.3028 113.3019 354° North  Level Estimated
Sat 09:28:00 PM 27.4288 113.2875 354° North  Level Estimated
Sat 09:29:00 PM 27.5548 113.2731 354° North  Level Estimated
Sat 09:30:00 PM 27.6809 113.2587 354° North  Level Estimated
Sat 09:31:00 PM 27.8069 113.2442 354° North  Level Estimated
Sat 09:32:00 PM 27.9329 113.2297 354° North  Level Estimated
Sat 09:33:00 PM 28.0589 113.2152 354° North  Level Estimated
Sat 09:34:00 PM 28.1849 113.2007 354° North  Level Estimated
Sat 09:35:00 PM 28.3109 113.1861 354° North  Level Estimated
Sat 09:36:00 PM 28.4369 113.1714 354° North  Level Estimated
Sat 09:37:00 PM 28.5629 113.1568 354° North  Level Estimated
Sat 09:38:00 PM 28.6889 113.1421 354° North  Level Estimated
Sat 09:39:00 PM 28.8149 113.1273 354° North  Level Estimated
Sat 09:40:00 PM 28.9409 113.1125 354° North  Level Estimated
Sat 09:41:00 PM 29.0669 113.0977 354° North  Level Estimated
Sat 09:42:00 PM 29.1928 113.0829 354° North  Level Estimated
Sat 09:43:00 PM 29.3188 113.0680 354° North  Level Estimated
Sat 09:44:00 PM 29.4448 113.0531 354° North  Level Estimated
Sat 09:45:00 PM 29.5708 113.0381 354° North  Level Estimated
Sat 09:46:00 PM 29.6968 113.0231 354° North  Level Estimated
Sat 09:47:00 PM 29.8228 113.0081 354° North  Level Estimated
Sat 09:48:00 PM 29.9487 112.9930 354° North  Level Estimated
Sat 09:49:00 PM 30.0747 112.9779 354° North  Level Estimated
Sat 09:50:00 PM 30.2007 112.9628 354° North  Level Estimated
Sat 09:51:00 PM 30.3267 112.9476 354° North  Level Estimated
Sat 09:52:00 PM 30.4526 112.9324 354° North  Level Estimated
Sat 09:53:00 PM 30.5786 112.9171 354° North  Level Estimated
Sat 09:54:00 PM 30.7046 112.9018 354° North  Level Estimated
Sat 09:55:00 PM 30.8305 112.8865 354° North  Level Estimated
Sat 09:56:00 PM 30.9565 112.8711 354° North  Level Estimated
Sat 09:57:00 PM 31.0825 112.8557 354° North  Level Estimated
Sat 09:58:00 PM 31.2084 112.8402 354° North  Level Estimated
Sat 09:59:00 PM 31.3344 112.8247 354° North  Level Estimated
Sat 10:00:00 PM 31.4604 112.8091 354° North  Level Estimated
Sat 10:01:00 PM 31.5863 112.7935 354° North  Level Estimated
Sat 10:02:00 PM 31.7123 112.7779 354° North  Level Estimated
Sat 10:03:00 PM 31.8382 112.7623 354° North  Level Estimated
Sat 10:04:00 PM 31.9471 112.7487 354° North  Level Estimated
Sat 10:05:00 PM 32.0561 112.7350 354° North  Level Estimated
Sat 10:06:00 PM 32.1650 112.7214 354° North  Level Estimated
Sat 10:07:00 PM 32.2739 112.7077 354° North  Level Estimated
Sat 10:08:00 PM 32.3829 112.6940 354° North  Level Estimated
Sat 10:09:00 PM 32.4918 112.6802 354° North  Level Estimated
Sat 10:10:00 PM 32.6007 112.6664 354° North  Level Estimated
Sat 10:11:00 PM 32.7096 112.6526 354° North  Level Estimated
Sat 10:12:00 PM 32.8185 112.6387 354° North  Level Estimated
Sat 10:13:00 PM 32.9275 112.6249 354° North  Level Estimated
Sat 10:14:00 PM 33.0364 112.6109 354° North  Level Estimated
Sat 10:15:00 PM 33.1453 112.5970 354° North  Level Estimated
Sat 10:16:00 PM 33.2542 112.5830 354° North  Level Estimated
Sat 10:17:00 PM 33.3631 112.5690 354° North  Level Estimated
Sat 10:18:00 PM 33.4720 112.5549 354° North  Level Estimated
Sat 10:19:00 PM 33.5809 112.5408 354° North  Level Estimated
Sat 10:20:00 PM 33.6898 112.5267 354° North  Level Estimated
Sat 10:21:00 PM 33.7987 112.5125 354° North  Level Estimated
Sat 10:22:00 PM 33.9076 112.4983 354° North  Level Estimated
Sat 10:23:00 PM 34.0165 112.4840 354° North  Level Estimated
Sat 10:24:00 PM 34.1254 112.4698 354° North  Level Estimated
Sat 10:25:00 PM 34.2343 112.4555 354° North  Level Estimated
Sat 10:26:00 PM 34.3432 112.4411 354° North  Level Estimated
Sat 10:27:00 PM 34.4521 112.4267 354° North  Level Estimated
Sat 10:28:00 PM 34.5610 112.4123 354° North  Level Estimated
Sat 10:29:00 PM 34.6699 112.3978 354° North  Level Estimated
Sat 10:30:00 PM 34.7411 112.3883 354° North  Level Estimated
Sat 10:31:00 PM 34.7411 112.3883 68° East  Level Estimated
Sat 10:32:00 PM 34.7411 112.3883 68° East  Level Estimated
Sat 10:33:00 PM 34.7411 112.3883 68° East  Level Estimated
Sat 10:34:00 PM 34.7411 112.3883 68° East  Level Estimated
Sat 10:35:00 PM 34.7411 112.3883 68° East  Level Estimated
Sat 10:36:00 PM 34.7411 112.3883 68° East  Level Estimated
Sat 10:37:00 PM 34.7411 112.3883 68° East  Level Estimated
Sat 10:38:00 PM 34.7411 112.3883 68° East  Level Estimated
Sat 10:39:00 PM 34.7411 112.3883 68° East  Level Estimated
Sat 10:40:00 PM 34.7411 112.3883 68° East  Level Estimated
Sat 10:41:00 PM 34.7411 112.3883 68° East  Level Estimated
Sat 10:42:00 PM 34.7411 112.3883 68° East  Level Estimated

Login

Don't have an account? Register now (free) for customized features, flight alerts, and more!